sensor_id;sensor_type;location;lat;lon;timestamp;temperature;humidity
47805;DHT22;33568;45.286;9.900;2022-11-02T00:01:36;18.20;94.60
47805;DHT22;33568;45.286;9.900;2022-11-02T00:04:04;18.30;94.50
47805;DHT22;33568;45.286;9.900;2022-11-02T00:06:30;18.40;94.40
47805;DHT22;33568;45.286;9.900;2022-11-02T00:08:56;18.30;94.40
47805;DHT22;33568;45.286;9.900;2022-11-02T00:11:23;18.40;94.40
47805;DHT22;33568;45.286;9.900;2022-11-02T00:13:49;18.40;94.30
47805;DHT22;33568;45.286;9.900;2022-11-02T00:16:17;18.50;94.20
47805;DHT22;33568;45.286;9.900;2022-11-02T00:18:46;18.50;94.10
47805;DHT22;33568;45.286;9.900;2022-11-02T00:21:16;18.60;94.10
47805;DHT22;33568;45.286;9.900;2022-11-02T00:23:44;18.60;94.00
47805;DHT22;33568;45.286;9.900;2022-11-02T00:26:11;18.60;93.90
47805;DHT22;33568;45.286;9.900;2022-11-02T00:28:38;18.60;93.90
47805;DHT22;33568;45.286;9.900;2022-11-02T00:31:05;18.60;93.90
47805;DHT22;33568;45.286;9.900;2022-11-02T00:33:31;18.50;93.90
47805;DHT22;33568;45.286;9.900;2022-11-02T00:35:57;18.50;93.90
47805;DHT22;33568;45.286;9.900;2022-11-02T00:38:24;18.50;93.90
47805;DHT22;33568;45.286;9.900;2022-11-02T00:40:50;18.50;94.20
47805;DHT22;33568;45.286;9.900;2022-11-02T00:43:17;18.40;94.00
47805;DHT22;33568;45.286;9.900;2022-11-02T00:45:43;18.50;93.90
47805;DHT22;33568;45.286;9.900;2022-11-02T00:48:10;18.40;93.90
47805;DHT22;33568;45.286;9.900;2022-11-02T00:50:36;18.40;93.90
47805;DHT22;33568;45.286;9.900;2022-11-02T00:53:02;18.50;93.90
47805;DHT22;33568;45.286;9.900;2022-11-02T00:55:29;18.40;93.80
47805;DHT22;33568;45.286;9.900;2022-11-02T00:58:00;18.40;93.80
47805;DHT22;33568;45.286;9.900;2022-11-02T01:00:26;18.30;93.70
47805;DHT22;33568;45.286;9.900;2022-11-02T01:02:52;18.30;93.80
47805;DHT22;33568;45.286;9.900;2022-11-02T01:05:19;18.20;94.00
47805;DHT22;33568;45.286;9.900;2022-11-02T01:07:47;18.20;93.90
47805;DHT22;33568;45.286;9.900;2022-11-02T01:10:13;18.30;93.90
47805;DHT22;33568;45.286;9.900;2022-11-02T01:12:40;18.30;93.90
47805;DHT22;33568;45.286;9.900;2022-11-02T01:15:07;18.20;93.90
47805;DHT22;33568;45.286;9.900;2022-11-02T01:17:33;18.30;93.90
47805;DHT22;33568;45.286;9.900;2022-11-02T01:20:00;18.30;93.80
47805;DHT22;33568;45.286;9.900;2022-11-02T01:22:26;18.20;93.80
47805;DHT22;33568;45.286;9.900;2022-11-02T01:24:53;18.20;94.10
47805;DHT22;33568;45.286;9.900;2022-11-02T01:27:20;18.20;93.80
47805;DHT22;33568;45.286;9.900;2022-11-02T01:29:46;18.10;94.00
47805;DHT22;33568;45.286;9.900;2022-11-02T01:32:15;18.00;94.20
47805;DHT22;33568;45.286;9.900;2022-11-02T01:34:41;18.00;94.10
47805;DHT22;33568;45.286;9.900;2022-11-02T01:37:09;17.90;94.20
47805;DHT22;33568;45.286;9.900;2022-11-02T01:39:35;17.90;94.10
47805;DHT22;33568;45.286;9.900;2022-11-02T01:42:01;17.90;94.10
47805;DHT22;33568;45.286;9.900;2022-11-02T01:44:29;17.90;94.30
47805;DHT22;33568;45.286;9.900;2022-11-02T01:47:10;17.90;94.00
47805;DHT22;33568;45.286;9.900;2022-11-02T01:49:42;17.90;93.90
47805;DHT22;33568;45.286;9.900;2022-11-02T01:52:13;17.90;94.10
47805;DHT22;33568;45.286;9.900;2022-11-02T01:54:48;17.90;94.10
47805;DHT22;33568;45.286;9.900;2022-11-02T01:57:19;17.90;94.10
47805;DHT22;33568;45.286;9.900;2022-11-02T01:59:56;17.80;94.20
47805;DHT22;33568;45.286;9.900;2022-11-02T02:02:26;17.80;94.30
47805;DHT22;33568;45.286;9.900;2022-11-02T02:05:01;17.80;94.40
47805;DHT22;33568;45.286;9.900;2022-11-02T02:07:30;17.80;94.40
47805;DHT22;33568;45.286;9.900;2022-11-02T02:09:59;17.80;94.30
47805;DHT22;33568;45.286;9.900;2022-11-02T02:12:27;17.80;94.30
47805;DHT22;33568;45.286;9.900;2022-11-02T02:14:54;17.80;94.30
47805;DHT22;33568;45.286;9.900;2022-11-02T02:18:10;17.80;94.40
47805;DHT22;33568;45.286;9.900;2022-11-02T02:21:08;17.80;94.30
47805;DHT22;33568;45.286;9.900;2022-11-02T02:23:49;17.80;94.40
47805;DHT22;33568;45.286;9.900;2022-11-02T02:32:15;17.70;94.50
47805;DHT22;33568;45.286;9.900;2022-11-02T02:35:06;17.80;94.50
47805;DHT22;33568;45.286;9.900;2022-11-02T02:37:45;17.80;94.40
47805;DHT22;33568;45.286;9.900;2022-11-02T02:40:20;17.80;94.50
47805;DHT22;33568;45.286;9.900;2022-11-02T02:42:56;17.80;94.50
47805;DHT22;33568;45.286;9.900;2022-11-02T02:45:37;17.90;94.50
47805;DHT22;33568;45.286;9.900;2022-11-02T02:48:18;18.00;94.40
47805;DHT22;33568;45.286;9.900;2022-11-02T02:50:48;18.00;94.30
47805;DHT22;33568;45.286;9.900;2022-11-02T02:53:21;18.00;94.30
47805;DHT22;33568;45.286;9.900;2022-11-02T02:55:50;18.00;94.30
47805;DHT22;33568;45.286;9.900;2022-11-02T02:58:21;18.00;94.40
47805;DHT22;33568;45.286;9.900;2022-11-02T03:00:50;18.00;94.30
47805;DHT22;33568;45.286;9.900;2022-11-02T03:03:26;18.00;94.30
47805;DHT22;33568;45.286;9.900;2022-11-02T03:08:38;18.00;94.30
47805;DHT22;33568;45.286;9.900;2022-11-02T03:11:15;18.00;94.40
47805;DHT22;33568;45.286;9.900;2022-11-02T03:14:10;17.90;94.50
47805;DHT22;33568;45.286;9.900;2022-11-02T03:17:24;17.80;94.70
47805;DHT22;33568;45.286;9.900;2022-11-02T03:20:10;17.70;94.80
47805;DHT22;33568;45.286;9.900;2022-11-02T03:23:00;17.80;94.90
47805;DHT22;33568;45.286;9.900;2022-11-02T03:28:24;17.90;94.90
47805;DHT22;33568;45.286;9.900;2022-11-02T03:31:05;17.90;94.80
47805;DHT22;33568;45.286;9.900;2022-11-02T03:33:46;17.90;94.80
47805;DHT22;33568;45.286;9.900;2022-11-02T03:36:23;17.90;94.70
47805;DHT22;33568;45.286;9.900;2022-11-02T03:39:06;17.90;94.70
47805;DHT22;33568;45.286;9.900;2022-11-02T03:41:39;17.80;94.90
47805;DHT22;33568;45.286;9.900;2022-11-02T03:44:11;17.90;95.00
47805;DHT22;33568;45.286;9.900;2022-11-02T03:46:42;18.00;94.90
47805;DHT22;33568;45.286;9.900;2022-11-02T03:49:12;18.00;94.90
47805;DHT22;33568;45.286;9.900;2022-11-02T03:51:42;18.00;94.90
47805;DHT22;33568;45.286;9.900;2022-11-02T03:54:38;18.00;94.80
47805;DHT22;33568;45.286;9.900;2022-11-02T03:57:08;18.00;94.70
47805;DHT22;33568;45.286;9.900;2022-11-02T03:59:37;18.00;94.80
47805;DHT22;33568;45.286;9.900;2022-11-02T04:02:03;18.00;94.90
47805;DHT22;33568;45.286;9.900;2022-11-02T04:04:30;17.90;95.10
47805;DHT22;33568;45.286;9.900;2022-11-02T04:06:57;18.00;94.80
47805;DHT22;33568;45.286;9.900;2022-11-02T04:09:23;18.10;94.80
47805;DHT22;33568;45.286;9.900;2022-11-02T04:11:49;18.00;94.90
47805;DHT22;33568;45.286;9.900;2022-11-02T04:14:34;18.10;94.80
47805;DHT22;33568;45.286;9.900;2022-11-02T04:17:07;18.10;94.80
47805;DHT22;33568;45.286;9.900;2022-11-02T04:19:54;18.10;94.80
47805;DHT22;33568;45.286;9.900;2022-11-02T04:22:21;18.10;94.80
47805;DHT22;33568;45.286;9.900;2022-11-02T04:25:13;18.10;94.80
47805;DHT22;33568;45.286;9.900;2022-11-02T04:28:08;18.10;94.80
47805;DHT22;33568;45.286;9.900;2022-11-02T04:30:43;18.10;94.80
47805;DHT22;33568;45.286;9.900;2022-11-02T04:33:10;18.10;94.80
47805;DHT22;33568;45.286;9.900;2022-11-02T04:36:02;18.10;94.80
47805;DHT22;33568;45.286;9.900;2022-11-02T04:38:30;18.10;94.90
47805;DHT22;33568;45.286;9.900;2022-11-02T04:41:10;18.00;94.90
47805;DHT22;33568;45.286;9.900;2022-11-02T04:43:56;18.00;94.90
47805;DHT22;33568;45.286;9.900;2022-11-02T04:46:25;17.90;95.00
47805;DHT22;33568;45.286;9.900;2022-11-02T04:48:52;17.90;95.00
47805;DHT22;33568;45.286;9.900;2022-11-02T04:51:20;17.90;95.10
47805;DHT22;33568;45.286;9.900;2022-11-02T04:53:48;17.90;95.10
47805;DHT22;33568;45.286;9.900;2022-11-02T04:56:16;17.90;95.10
47805;DHT22;33568;45.286;9.900;2022-11-02T04:58:46;18.00;95.10
47805;DHT22;33568;45.286;9.900;2022-11-02T05:01:14;18.00;95.10
47805;DHT22;33568;45.286;9.900;2022-11-02T05:03:42;18.10;95.00
47805;DHT22;33568;45.286;9.900;2022-11-02T05:06:10;18.10;94.90
47805;DHT22;33568;45.286;9.900;2022-11-02T05:08:37;18.10;94.90
47805;DHT22;33568;45.286;9.900;2022-11-02T05:11:04;18.10;94.80
47805;DHT22;33568;45.286;9.900;2022-11-02T05:13:31;18.00;94.90
47805;DHT22;33568;45.286;9.900;2022-11-02T05:15:59;18.00;95.00
47805;DHT22;33568;45.286;9.900;2022-11-02T05:18:27;18.00;95.00
47805;DHT22;33568;45.286;9.900;2022-11-02T05:20:59;18.00;95.00
47805;DHT22;33568;45.286;9.900;2022-11-02T05:23:28;18.00;95.10
47805;DHT22;33568;45.286;9.900;2022-11-02T05:26:04;18.00;95.10
47805;DHT22;33568;45.286;9.900;2022-11-02T05:28:33;18.10;95.00
47805;DHT22;33568;45.286;9.900;2022-11-02T05:31:02;18.00;95.00
47805;DHT22;33568;45.286;9.900;2022-11-02T05:33:32;18.00;95.00
47805;DHT22;33568;45.286;9.900;2022-11-02T05:36:02;18.00;95.00
47805;DHT22;33568;45.286;9.900;2022-11-02T05:38:30;18.00;95.10
47805;DHT22;33568;45.286;9.900;2022-11-02T05:40:59;18.00;95.10
47805;DHT22;33568;45.286;9.900;2022-11-02T05:43:29;18.00;95.00
47805;DHT22;33568;45.286;9.900;2022-11-02T05:45:59;18.00;95.10
47805;DHT22;33568;45.286;9.900;2022-11-02T05:48:27;18.00;95.00
47805;DHT22;33568;45.286;9.900;2022-11-02T05:50:56;18.00;95.00
47805;DHT22;33568;45.286;9.900;2022-11-02T05:53:23;17.90;95.00
47805;DHT22;33568;45.286;9.900;2022-11-02T05:55:50;18.00;95.10
47805;DHT22;33568;45.286;9.900;2022-11-02T05:58:17;17.90;95.10
47805;DHT22;33568;45.286;9.900;2022-11-02T06:00:43;17.90;95.10
47805;DHT22;33568;45.286;9.900;2022-11-02T06:03:09;17.90;95.10
47805;DHT22;33568;45.286;9.900;2022-11-02T06:05:36;17.80;95.30
47805;DHT22;33568;45.286;9.900;2022-11-02T06:08:02;17.80;95.30
47805;DHT22;33568;45.286;9.900;2022-11-02T06:10:29;17.80;95.50
47805;DHT22;33568;45.286;9.900;2022-11-02T06:13:00;17.90;95.30
47805;DHT22;33568;45.286;9.900;2022-11-02T06:15:29;17.90;95.10
47805;DHT22;33568;45.286;9.900;2022-11-02T06:17:56;18.00;95.10
47805;DHT22;33568;45.286;9.900;2022-11-02T06:20:23;18.00;95.10
47805;DHT22;33568;45.286;9.900;2022-11-02T06:22:49;18.00;95.10
47805;DHT22;33568;45.286;9.900;2022-11-02T06:25:16;18.00;95.00
47805;DHT22;33568;45.286;9.900;2022-11-02T06:27:51;18.00;95.00
47805;DHT22;33568;45.286;9.900;2022-11-02T06:30:19;18.00;95.00
47805;DHT22;33568;45.286;9.900;2022-11-02T06:32:49;18.00;95.00
47805;DHT22;33568;45.286;9.900;2022-11-02T06:35:17;18.00;95.00
47805;DHT22;33568;45.286;9.900;2022-11-02T06:37:44;18.00;95.10
47805;DHT22;33568;45.286;9.900;2022-11-02T06:40:12;17.90;95.10
47805;DHT22;33568;45.286;9.900;2022-11-02T06:42:39;18.00;95.00
47805;DHT22;33568;45.286;9.900;2022-11-02T06:45:06;17.90;95.10
47805;DHT22;33568;45.286;9.900;2022-11-02T06:47:36;18.00;95.00
47805;DHT22;33568;45.286;9.900;2022-11-02T06:50:04;17.90;94.90
47805;DHT22;33568;45.286;9.900;2022-11-02T06:52:31;17.80;95.10
47805;DHT22;33568;45.286;9.900;2022-11-02T06:54:57;17.90;95.20
47805;DHT22;33568;45.286;9.900;2022-11-02T06:57:24;17.90;95.20
47805;DHT22;33568;45.286;9.900;2022-11-02T06:59:50;17.80;95.30
47805;DHT22;33568;45.286;9.900;2022-11-02T07:02:16;17.90;95.20
47805;DHT22;33568;45.286;9.900;2022-11-02T07:04:43;17.90;95.20
47805;DHT22;33568;45.286;9.900;2022-11-02T07:07:09;18.00;95.10
47805;DHT22;33568;45.286;9.900;2022-11-02T07:09:35;18.10;94.90
47805;DHT22;33568;45.286;9.900;2022-11-02T07:12:02;18.10;95.00
47805;DHT22;33568;45.286;9.900;2022-11-02T07:14:29;18.10;94.90
47805;DHT22;33568;45.286;9.900;2022-11-02T07:16:55;18.10;95.00
47805;DHT22;33568;45.286;9.900;2022-11-02T07:19:21;18.20;94.80
47805;DHT22;33568;45.286;9.900;2022-11-02T07:21:48;18.20;94.70
47805;DHT22;33568;45.286;9.900;2022-11-02T07:24:14;18.10;94.70
47805;DHT22;33568;45.286;9.900;2022-11-02T07:26:40;18.20;94.70
47805;DHT22;33568;45.286;9.900;2022-11-02T07:29:06;18.10;95.00
47805;DHT22;33568;45.286;9.900;2022-11-02T07:31:33;18.10;94.80
47805;DHT22;33568;45.286;9.900;2022-11-02T07:33:59;18.10;94.90
47805;DHT22;33568;45.286;9.900;2022-11-02T07:36:25;18.20;94.70
47805;DHT22;33568;45.286;9.900;2022-11-02T07:38:51;18.10;94.80
47805;DHT22;33568;45.286;9.900;2022-11-02T07:41:18;18.20;94.70
47805;DHT22;33568;45.286;9.900;2022-11-02T07:43:44;18.10;94.90
47805;DHT22;33568;45.286;9.900;2022-11-02T07:46:19;18.20;94.70
47805;DHT22;33568;45.286;9.900;2022-11-02T07:48:45;18.20;94.70
47805;DHT22;33568;45.286;9.900;2022-11-02T07:51:12;18.10;94.90
47805;DHT22;33568;45.286;9.900;2022-11-02T07:53:39;18.10;94.80
47805;DHT22;33568;45.286;9.900;2022-11-02T07:56:05;18.10;94.70
47805;DHT22;33568;45.286;9.900;2022-11-02T07:58:32;18.10;94.80
47805;DHT22;33568;45.286;9.900;2022-11-02T08:01:00;18.20;94.80
47805;DHT22;33568;45.286;9.900;2022-11-02T08:03:27;18.20;94.80
47805;DHT22;33568;45.286;9.900;2022-11-02T08:05:54;18.20;94.70
47805;DHT22;33568;45.286;9.900;2022-11-02T08:08:22;18.30;94.60
47805;DHT22;33568;45.286;9.900;2022-11-02T08:10:51;18.40;94.60
47805;DHT22;33568;45.286;9.900;2022-11-02T08:13:19;18.50;94.40
47805;DHT22;33568;45.286;9.900;2022-11-02T08:15:51;18.50;94.40
47805;DHT22;33568;45.286;9.900;2022-11-02T08:18:22;18.50;94.30
47805;DHT22;33568;45.286;9.900;2022-11-02T08:20:49;18.50;94.30
47805;DHT22;33568;45.286;9.900;2022-11-02T08:23:18;18.60;94.20
47805;DHT22;33568;45.286;9.900;2022-11-02T08:25:47;18.70;94.10
47805;DHT22;33568;45.286;9.900;2022-11-02T08:28:23;18.70;94.00
47805;DHT22;33568;45.286;9.900;2022-11-02T08:30:50;18.70;94.00
47805;DHT22;33568;45.286;9.900;2022-11-02T08:33:17;18.70;94.10
47805;DHT22;33568;45.286;9.900;2022-11-02T08:35:45;18.70;94.10
47805;DHT22;33568;45.286;9.900;2022-11-02T08:38:13;18.60;94.10
47805;DHT22;33568;45.286;9.900;2022-11-02T08:40:40;18.80;94.00
47805;DHT22;33568;45.286;9.900;2022-11-02T08:43:09;18.90;93.90
47805;DHT22;33568;45.286;9.900;2022-11-02T08:45:37;19.00;93.70
47805;DHT22;33568;45.286;9.900;2022-11-02T08:48:04;19.20;93.50
47805;DHT22;33568;45.286;9.900;2022-11-02T08:50:31;19.20;93.40
47805;DHT22;33568;45.286;9.900;2022-11-02T08:52:58;19.20;93.30
47805;DHT22;33568;45.286;9.900;2022-11-02T08:55:24;19.00;93.50
47805;DHT22;33568;45.286;9.900;2022-11-02T08:57:51;18.80;93.80
47805;DHT22;33568;45.286;9.900;2022-11-02T09:00:20;18.50;94.30
47805;DHT22;33568;45.286;9.900;2022-11-02T09:03:06;18.50;94.20
47805;DHT22;33568;45.286;9.900;2022-11-02T09:05:34;18.50;94.40
47805;DHT22;33568;45.286;9.900;2022-11-02T09:08:03;18.50;94.40
47805;DHT22;33568;45.286;9.900;2022-11-02T09:10:32;18.50;94.30
47805;DHT22;33568;45.286;9.900;2022-11-02T09:13:00;18.50;94.30
47805;DHT22;33568;45.286;9.900;2022-11-02T09:15:28;18.60;94.30
47805;DHT22;33568;45.286;9.900;2022-11-02T09:17:54;18.60;94.20
47805;DHT22;33568;45.286;9.900;2022-11-02T09:20:21;18.80;94.10
47805;DHT22;33568;45.286;9.900;2022-11-02T09:22:48;18.70;94.10
47805;DHT22;33568;45.286;9.900;2022-11-02T09:25:15;18.80;94.00
47805;DHT22;33568;45.286;9.900;2022-11-02T09:27:42;18.90;93.80
47805;DHT22;33568;45.286;9.900;2022-11-02T09:30:09;19.00;93.70
47805;DHT22;33568;45.286;9.900;2022-11-02T09:32:36;19.10;93.50
47805;DHT22;33568;45.286;9.900;2022-11-02T09:35:07;19.10;93.40
47805;DHT22;33568;45.286;9.900;2022-11-02T09:37:33;19.10;93.40
47805;DHT22;33568;45.286;9.900;2022-11-02T09:40:00;19.10;93.40
47805;DHT22;33568;45.286;9.900;2022-11-02T09:44:54;19.10;93.30
47805;DHT22;33568;45.286;9.900;2022-11-02T09:47:23;19.10;93.40
47805;DHT22;33568;45.286;9.900;2022-11-02T09:49:51;19.20;93.30
47805;DHT22;33568;45.286;9.900;2022-11-02T09:52:24;19.20;93.20
47805;DHT22;33568;45.286;9.900;2022-11-02T09:54:53;19.30;93.20
47805;DHT22;33568;45.286;9.900;2022-11-02T09:57:27;19.30;93.10
47805;DHT22;33568;45.286;9.900;2022-11-02T09:59:55;19.40;93.00
47805;DHT22;33568;45.286;9.900;2022-11-02T10:05:38;19.30;92.90
47805;DHT22;33568;45.286;9.900;2022-11-02T10:11:26;18.90;93.30
47805;DHT22;33568;45.286;9.900;2022-11-02T10:14:00;18.70;93.70
47805;DHT22;33568;45.286;9.900;2022-11-02T10:16:39;18.50;94.00
47805;DHT22;33568;45.286;9.900;2022-11-02T10:19:13;18.40;94.20
47805;DHT22;33568;45.286;9.900;2022-11-02T10:21:43;18.50;94.30
47805;DHT22;33568;45.286;9.900;2022-11-02T10:24:22;18.60;94.30
47805;DHT22;33568;45.286;9.900;2022-11-02T10:26:51;18.70;94.10
47805;DHT22;33568;45.286;9.900;2022-11-02T10:29:40;18.80;93.90
47805;DHT22;33568;45.286;9.900;2022-11-02T10:32:10;18.90;93.70
47805;DHT22;33568;45.286;9.900;2022-11-02T10:34:37;18.90;93.90
47805;DHT22;33568;45.286;9.900;2022-11-02T10:51:21;19.10;93.50
47805;DHT22;33568;45.286;9.900;2022-11-02T10:53:51;19.20;93.50
47805;DHT22;33568;45.286;9.900;2022-11-02T10:56:23;19.20;93.40
47805;DHT22;33568;45.286;9.900;2022-11-02T10:58:58;19.30;93.40
47805;DHT22;33568;45.286;9.900;2022-11-02T11:01:27;19.30;93.30
47805;DHT22;33568;45.286;9.900;2022-11-02T11:04:18;19.30;93.20
47805;DHT22;33568;45.286;9.900;2022-11-02T11:06:45;19.30;93.20
47805;DHT22;33568;45.286;9.900;2022-11-02T11:09:26;19.30;93.30
47805;DHT22;33568;45.286;9.900;2022-11-02T11:14:26;19.20;93.30
47805;DHT22;33568;45.286;9.900;2022-11-02T11:16:58;19.20;93.60
47805;DHT22;33568;45.286;9.900;2022-11-02T11:19:38;19.20;93.70
47805;DHT22;33568;45.286;9.900;2022-11-02T11:22:26;19.10;93.40
47805;DHT22;33568;45.286;9.900;2022-11-02T11:27:53;19.10;93.40
47805;DHT22;33568;45.286;9.900;2022-11-02T11:30:29;19.10;93.50
47805;DHT22;33568;45.286;9.900;2022-11-02T11:32:57;19.20;93.50
47805;DHT22;33568;45.286;9.900;2022-11-02T11:35:30;19.20;93.50
47805;DHT22;33568;45.286;9.900;2022-11-02T11:38:13;19.20;93.50
47805;DHT22;33568;45.286;9.900;2022-11-02T11:40:44;19.20;93.40
47805;DHT22;33568;45.286;9.900;2022-11-02T11:43:15;19.20;93.50
47805;DHT22;33568;45.286;9.900;2022-11-02T11:46:00;19.20;93.40
47805;DHT22;33568;45.286;9.900;2022-11-02T11:49:00;19.20;93.30
47805;DHT22;33568;45.286;9.900;2022-11-02T11:51:29;19.30;93.40
47805;DHT22;33568;45.286;9.900;2022-11-02T11:56:45;19.30;93.10
47805;DHT22;33568;45.286;9.900;2022-11-02T11:59:28;19.30;93.20
47805;DHT22;33568;45.286;9.900;2022-11-02T12:01:57;19.30;93.10
47805;DHT22;33568;45.286;9.900;2022-11-02T12:04:35;19.30;93.30
47805;DHT22;33568;45.286;9.900;2022-11-02T12:07:37;19.40;93.20
47805;DHT22;33568;45.286;9.900;2022-11-02T12:10:02;19.60;92.90
47805;DHT22;33568;45.286;9.900;2022-11-02T12:24:00;19.60;92.80
47805;DHT22;33568;45.286;9.900;2022-11-02T12:31:46;19.40;93.10
47805;DHT22;33568;45.286;9.900;2022-11-02T12:35:36;19.40;93.10
47805;DHT22;33568;45.286;9.900;2022-11-02T12:45:57;19.60;92.90
47805;DHT22;33568;45.286;9.900;2022-11-02T12:51:26;19.60;92.90
47805;DHT22;33568;45.286;9.900;2022-11-02T12:53:57;19.60;92.90
47805;DHT22;33568;45.286;9.900;2022-11-02T12:56:48;19.60;92.90
47805;DHT22;33568;45.286;9.900;2022-11-02T12:59:32;19.50;92.80
47805;DHT22;33568;45.286;9.900;2022-11-02T13:02:12;19.50;93.00
47805;DHT22;33568;45.286;9.900;2022-11-02T13:04:46;19.50;92.90
47805;DHT22;33568;45.286;9.900;2022-11-02T13:07:17;19.60;92.90
47805;DHT22;33568;45.286;9.900;2022-11-02T13:10:06;19.60;92.90
47805;DHT22;33568;45.286;9.900;2022-11-02T13:12:41;19.60;92.70
47805;DHT22;33568;45.286;9.900;2022-11-02T13:15:14;19.70;92.90
47805;DHT22;33568;45.286;9.900;2022-11-02T13:17:52;19.70;92.90
47805;DHT22;33568;45.286;9.900;2022-11-02T13:20:35;19.80;92.60
47805;DHT22;33568;45.286;9.900;2022-11-02T13:23:28;19.90;92.50
47805;DHT22;33568;45.286;9.900;2022-11-02T13:26:15;19.80;92.60
47805;DHT22;33568;45.286;9.900;2022-11-02T13:28:52;19.90;92.70
47805;DHT22;33568;45.286;9.900;2022-11-02T13:31:26;19.90;92.60
47805;DHT22;33568;45.286;9.900;2022-11-02T13:33:55;19.90;92.50
47805;DHT22;33568;45.286;9.900;2022-11-02T13:36:22;19.90;92.60
47805;DHT22;33568;45.286;9.900;2022-11-02T13:39:02;19.80;92.60
47805;DHT22;33568;45.286;9.900;2022-11-02T13:42:03;19.70;92.80
47805;DHT22;33568;45.286;9.900;2022-11-02T13:50:22;19.40;93.10
47805;DHT22;33568;45.286;9.900;2022-11-02T13:53:01;19.50;93.30
47805;DHT22;33568;45.286;9.900;2022-11-02T13:55:41;19.40;93.30
47805;DHT22;33568;45.286;9.900;2022-11-02T13:58:23;19.30;93.50
47805;DHT22;33568;45.286;9.900;2022-11-02T14:00:53;19.20;93.70
47805;DHT22;33568;45.286;9.900;2022-11-02T14:03:24;19.20;93.70
47805;DHT22;33568;45.286;9.900;2022-11-02T14:06:00;19.20;93.70
47805;DHT22;33568;45.286;9.900;2022-11-02T14:08:36;19.30;93.80
47805;DHT22;33568;45.286;9.900;2022-11-02T14:14:21;19.50;93.30
47805;DHT22;33568;45.286;9.900;2022-11-02T14:22:02;19.60;93.20
47805;DHT22;33568;45.286;9.900;2022-11-02T14:27:01;19.70;93.00
47805;DHT22;33568;45.286;9.900;2022-11-02T14:43:43;19.50;93.30
47805;DHT22;33568;45.286;9.900;2022-11-02T14:46:27;19.50;93.40
47805;DHT22;33568;45.286;9.900;2022-11-02T14:48:59;19.40;93.30
47805;DHT22;33568;45.286;9.900;2022-11-02T14:51:32;19.40;93.40
47805;DHT22;33568;45.286;9.900;2022-11-02T14:54:18;19.40;93.70
47805;DHT22;33568;45.286;9.900;2022-11-02T14:56:55;19.50;93.50
47805;DHT22;33568;45.286;9.900;2022-11-02T14:59:36;19.50;93.40
47805;DHT22;33568;45.286;9.900;2022-11-02T15:02:19;19.50;93.50
47805;DHT22;33568;45.286;9.900;2022-11-02T15:04:49;19.50;93.50
47805;DHT22;33568;45.286;9.900;2022-11-02T15:07:24;19.40;93.50
47805;DHT22;33568;45.286;9.900;2022-11-02T15:12:32;19.40;93.60
47805;DHT22;33568;45.286;9.900;2022-11-02T15:15:46;19.40;93.60
47805;DHT22;33568;45.286;9.900;2022-11-02T15:17:51;19.40;93.70
47805;DHT22;33568;45.286;9.900;2022-11-02T15:22:53;19.30;93.80
47805;DHT22;33568;45.286;9.900;2022-11-02T15:25:27;19.30;93.90
47805;DHT22;33568;45.286;9.900;2022-11-02T15:27:56;19.20;93.90
47805;DHT22;33568;45.286;9.900;2022-11-02T15:30:28;19.20;93.90
47805;DHT22;33568;45.286;9.900;2022-11-02T15:33:03;19.20;93.90
47805;DHT22;33568;45.286;9.900;2022-11-02T15:35:33;19.20;94.00
47805;DHT22;33568;45.286;9.900;2022-11-02T15:38:03;19.20;94.00
47805;DHT22;33568;45.286;9.900;2022-11-02T15:40:46;19.20;94.00
47805;DHT22;33568;45.286;9.900;2022-11-02T15:58:27;19.10;94.20
47805;DHT22;33568;45.286;9.900;2022-11-02T16:01:19;19.10;94.30
47805;DHT22;33568;45.286;9.900;2022-11-02T16:03:47;19.10;94.30
47805;DHT22;33568;45.286;9.900;2022-11-02T16:06:29;19.10;94.30
47805;DHT22;33568;45.286;9.900;2022-11-02T16:08:59;19.00;94.30
47805;DHT22;33568;45.286;9.900;2022-11-02T16:11:26;19.00;94.40
47805;DHT22;33568;45.286;9.900;2022-11-02T16:14:13;19.10;94.40
47805;DHT22;33568;45.286;9.900;2022-11-02T16:16:47;19.10;94.40
47805;DHT22;33568;45.286;9.900;2022-11-02T16:19:20;19.10;94.40
47805;DHT22;33568;45.286;9.900;2022-11-02T16:21:48;19.10;94.40
47805;DHT22;33568;45.286;9.900;2022-11-02T16:24:15;19.10;94.40
47805;DHT22;33568;45.286;9.900;2022-11-02T16:26:42;19.10;94.40
47805;DHT22;33568;45.286;9.900;2022-11-02T16:29:10;19.10;94.50
47805;DHT22;33568;45.286;9.900;2022-11-02T16:31:37;19.10;94.50
47805;DHT22;33568;45.286;9.900;2022-11-02T16:34:24;19.10;94.50
47805;DHT22;33568;45.286;9.900;2022-11-02T16:36:51;19.00;94.50
47805;DHT22;33568;45.286;9.900;2022-11-02T16:39:28;19.00;94.50
47805;DHT22;33568;45.286;9.900;2022-11-02T16:41:58;19.00;94.60
47805;DHT22;33568;45.286;9.900;2022-11-02T16:44:27;19.00;94.60
47805;DHT22;33568;45.286;9.900;2022-11-02T16:49:34;19.00;94.60
47805;DHT22;33568;45.286;9.900;2022-11-02T16:52:35;19.00;94.70
47805;DHT22;33568;45.286;9.900;2022-11-02T16:55:33;19.00;94.80
47805;DHT22;33568;45.286;9.900;2022-11-02T16:58:01;19.10;94.80
47805;DHT22;33568;45.286;9.900;2022-11-02T17:00:28;19.20;94.80
47805;DHT22;33568;45.286;9.900;2022-11-02T17:02:55;19.20;94.80
47805;DHT22;33568;45.286;9.900;2022-11-02T17:05:23;19.30;94.80
47805;DHT22;33568;45.286;9.900;2022-11-02T17:08:08;19.40;94.80
47805;DHT22;33568;45.286;9.900;2022-11-02T17:10:44;19.40;94.80
47805;DHT22;33568;45.286;9.900;2022-11-02T17:13:14;19.40;94.80
47805;DHT22;33568;45.286;9.900;2022-11-02T17:15:47;19.40;94.70
47805;DHT22;33568;45.286;9.900;2022-11-02T17:18:25;19.40;94.80
47805;DHT22;33568;45.286;9.900;2022-11-02T17:23:46;19.50;94.70
47805;DHT22;33568;45.286;9.900;2022-11-02T17:33:53;19.70;94.80
47805;DHT22;33568;45.286;9.900;2022-11-02T17:36:20;19.60;94.80
47805;DHT22;33568;45.286;9.900;2022-11-02T17:38:47;19.70;94.80
47805;DHT22;33568;45.286;9.900;2022-11-02T17:41:17;19.70;94.80
47805;DHT22;33568;45.286;9.900;2022-11-02T17:44:02;19.70;94.80
47805;DHT22;33568;45.286;9.900;2022-11-02T17:46:29;19.60;94.80
47805;DHT22;33568;45.286;9.900;2022-11-02T17:48:55;19.60;94.80
47805;DHT22;33568;45.286;9.900;2022-11-02T17:51:23;19.60;94.90
47805;DHT22;33568;45.286;9.900;2022-11-02T17:53:50;19.60;94.90
47805;DHT22;33568;45.286;9.900;2022-11-02T17:56:16;19.60;94.90
47805;DHT22;33568;45.286;9.900;2022-11-02T17:58:43;19.70;94.80
47805;DHT22;33568;45.286;9.900;2022-11-02T18:01:11;19.70;94.80
47805;DHT22;33568;45.286;9.900;2022-11-02T18:03:38;19.70;94.70
47805;DHT22;33568;45.286;9.900;2022-11-02T18:06:04;19.60;94.80
47805;DHT22;33568;45.286;9.900;2022-11-02T18:08:31;19.60;94.90
47805;DHT22;33568;45.286;9.900;2022-11-02T18:11:17;19.60;94.90
47805;DHT22;33568;45.286;9.900;2022-11-02T18:13:43;19.60;94.90
47805;DHT22;33568;45.286;9.900;2022-11-02T18:16:10;19.50;95.00